createdAt,value
2023-01-17T00:02:09.439Z,19360.66
2023-01-17T00:04:55.082Z,19332.19
2023-01-17T00:07:42.848Z,19320.00
2023-01-17T00:10:14.476Z,19309.84
2023-01-17T00:12:48.991Z,19320.00
2023-01-17T00:15:19.657Z,19315.94
2023-01-17T00:17:49.524Z,19322.03
2023-01-17T00:20:38.077Z,19295.63
2023-01-17T00:23:26.045Z,19301.72
2023-01-17T00:26:04.143Z,19283.44
2023-01-17T00:28:35.035Z,19293.59
2023-01-17T00:31:03.687Z,19285.47
2023-01-17T00:33:32.459Z,19275.31
2023-01-17T00:36:01.411Z,19271.25
2023-01-17T00:38:31.107Z,19305.78
2023-01-17T00:41:02.896Z,19279.38
2023-01-17T00:43:49.842Z,19281.41
2023-01-17T00:46:35.594Z,19267.16
2023-01-17T00:49:22.939Z,19279.38
2023-01-17T00:52:08.524Z,19309.84
2023-01-17T00:54:55.180Z,19297.66
2023-01-17T00:57:40.815Z,19293.59
2023-01-17T01:00:28.470Z,19324.06
2023-01-17T01:03:14.408Z,19317.97
2023-01-17T01:06:01.298Z,19275.31
2023-01-17T01:08:49.021Z,19265.13
2023-01-17T01:11:38.817Z,19309.84
2023-01-17T01:14:26.690Z,19354.56
2023-01-17T01:17:12.504Z,19328.13
2023-01-17T01:19:58.286Z,19299.69
2023-01-17T01:22:45.191Z,19305.78
2023-01-17T01:25:30.597Z,19295.63
2023-01-17T01:28:23.567Z,19320.00
2023-01-17T01:31:09.369Z,19317.97
2023-01-17T01:33:37.525Z,19326.09
2023-01-17T01:36:09.840Z,19309.84
2023-01-17T01:38:39.705Z,19326.09
2023-01-17T01:41:08.117Z,19311.88
2023-01-17T01:43:46.276Z,19346.44
2023-01-17T01:46:22.854Z,19305.78
2023-01-17T01:48:57.506Z,19320.00
2023-01-17T01:51:31.903Z,19307.81
2023-01-17T01:54:06.755Z,19317.97
2023-01-17T01:56:35.614Z,19320.00
2023-01-17T01:59:09.843Z,19313.91
2023-01-17T02:01:38.302Z,19330.16
2023-01-17T02:04:09.830Z,19301.72
2023-01-17T02:06:44.511Z,19307.81
2023-01-17T02:09:18.049Z,19265.13
2023-01-17T02:11:49.192Z,19289.53
2023-01-17T02:14:19.378Z,19275.31
2023-01-17T02:17:04.209Z,19269.22
2023-01-17T02:20:13.890Z,19273.28
2023-01-17T02:23:31.112Z,19248.88
2023-01-17T02:26:48.713Z,19218.41
2023-01-17T02:29:58.350Z,19261.06
2023-01-17T02:32:52.196Z,19238.72
2023-01-17T02:35:34.946Z,19285.47
2023-01-17T02:38:17.443Z,19246.84
2023-01-17T02:40:53.661Z,19267.16
2023-01-17T02:43:25.771Z,19234.66
2023-01-17T02:45:53.947Z,19273.28
2023-01-17T02:48:31.208Z,19257.00
2023-01-17T02:51:47.018Z,19293.59
2023-01-17T02:54:38.975Z,19220.44
2023-01-17T02:57:28.512Z,19248.88
2023-01-17T03:00:10.614Z,19242.78
2023-01-17T03:02:50.036Z,19212.31
2023-01-17T03:05:28.326Z,19240.75
2023-01-17T03:07:57.777Z,19305.78
2023-01-17T03:10:26.338Z,19277.34
2023-01-17T03:13:00.785Z,19228.56
2023-01-17T03:15:29.364Z,19248.88
2023-01-17T03:18:04.614Z,19248.88
2023-01-17T03:20:34.158Z,19263.09
2023-01-17T03:23:02.422Z,19234.66
2023-01-17T03:25:30.618Z,19261.06
2023-01-17T03:27:58.753Z,19244.81
2023-01-17T03:30:27.113Z,19224.50
2023-01-17T03:32:55.264Z,19224.50
2023-01-17T03:35:23.398Z,19265.13
2023-01-17T03:37:52.889Z,19281.41
2023-01-17T03:40:21.029Z,19234.66
2023-01-17T03:42:49.153Z,19238.72
2023-01-17T03:45:17.374Z,19248.88
2023-01-17T03:47:45.527Z,19238.72
2023-01-17T03:50:14.099Z,19269.22
2023-01-17T03:52:42.224Z,19222.47
2023-01-17T03:55:12.409Z,19240.75
2023-01-17T03:57:40.531Z,19248.88
2023-01-17T04:00:12.127Z,19240.75
2023-01-17T04:02:40.316Z,19273.28
2023-01-17T04:05:09.370Z,19232.63
2023-01-17T04:07:37.480Z,19238.72
2023-01-17T04:10:07.341Z,19230.59
2023-01-17T04:12:36.834Z,19285.47
2023-01-17T04:15:05.664Z,19250.91
2023-01-17T04:17:33.804Z,19265.13
2023-01-17T04:20:01.892Z,19234.66
2023-01-17T04:22:31.518Z,19269.22
2023-01-17T04:24:59.647Z,19232.63
2023-01-17T04:27:27.782Z,19238.72
2023-01-17T04:29:57.278Z,19236.69
2023-01-17T04:32:25.419Z,19250.91
2023-01-17T04:34:53.548Z,19222.47
2023-01-17T04:37:21.622Z,19220.44
2023-01-17T04:39:49.721Z,19208.25
2023-01-17T04:42:17.822Z,19257.00
2023-01-17T04:44:45.946Z,19208.25
2023-01-17T04:47:15.387Z,19200.13
2023-01-17T04:49:44.246Z,19212.31
2023-01-17T04:52:12.431Z,19206.22
2023-01-17T04:54:40.545Z,19214.34
2023-01-17T04:57:08.744Z,19222.47
2023-01-17T04:59:36.843Z,19242.78
2023-01-17T05:02:05.039Z,19216.38
2023-01-17T05:04:34.541Z,19218.41
2023-01-17T05:07:03.967Z,19238.72
2023-01-17T05:09:32.395Z,19246.84
2023-01-17T05:12:00.575Z,19291.56
2023-01-17T05:14:28.755Z,19212.31
2023-01-17T05:16:57.808Z,19254.97
2023-01-17T05:19:27.891Z,19236.69
2023-01-17T05:22:03.767Z,19216.38
2023-01-17T05:24:32.578Z,19222.47
2023-01-17T05:27:03.220Z,19240.75
2023-01-17T05:29:31.813Z,19206.22
2023-01-17T05:31:59.921Z,19236.69
2023-01-17T05:34:28.046Z,19208.25
2023-01-17T05:36:57.680Z,19198.09
2023-01-17T05:39:26.431Z,19224.50
2023-01-17T05:41:54.574Z,19175.72
2023-01-17T05:44:22.712Z,19216.38
2023-01-17T05:46:50.814Z,19267.16
2023-01-17T05:49:18.932Z,19224.50
2023-01-17T05:51:47.036Z,19232.63
2023-01-17T05:54:16.705Z,19265.13
2023-01-17T05:56:45.064Z,19196.06
2023-01-17T05:59:14.359Z,19224.50
2023-01-17T06:01:42.614Z,19248.88
2023-01-17T06:04:10.730Z,19228.56
2023-01-17T06:06:38.900Z,19216.38
2023-01-17T06:09:07.044Z,19234.66
2023-01-17T06:11:36.536Z,19206.22
2023-01-17T06:14:04.659Z,19224.50
2023-01-17T06:16:32.796Z,19240.75
2023-01-17T06:19:00.926Z,19210.28
2023-01-17T06:21:31.057Z,19204.19
2023-01-17T06:23:59.158Z,19220.44
2023-01-17T06:26:27.297Z,19187.91
2023-01-17T06:28:56.778Z,19222.47
2023-01-17T06:31:24.950Z,19228.56
2023-01-17T06:33:53.498Z,19214.34
2023-01-17T06:36:21.816Z,19238.72
2023-01-17T06:38:51.986Z,19224.50
2023-01-17T06:41:20.106Z,19218.41
2023-01-17T06:43:48.207Z,19261.06
2023-01-17T06:46:17.733Z,19257.00
2023-01-17T06:48:46.095Z,19252.94
2023-01-17T06:51:14.198Z,19250.91
2023-01-17T06:53:42.750Z,19242.78
2023-01-17T06:56:11.304Z,19275.31
2023-01-17T06:58:39.464Z,19277.34
2023-01-17T07:01:09.163Z,19252.94
2023-01-17T07:03:39.105Z,19214.34
2023-01-17T07:06:09.427Z,19248.88
2023-01-17T07:08:38.236Z,19259.03
2023-01-17T07:11:09.042Z,19234.66
2023-01-17T07:13:38.824Z,19228.56
2023-01-17T07:16:08.997Z,19234.66
2023-01-17T07:18:38.507Z,19236.69
2023-01-17T07:21:12.566Z,19208.25
2023-01-17T07:23:40.759Z,19230.59
2023-01-17T07:26:08.979Z,19216.38
2023-01-17T07:28:37.188Z,19226.53
2023-01-17T07:31:09.165Z,19261.06
2023-01-17T07:33:38.737Z,19192.00
2023-01-17T07:36:09.293Z,19265.13
2023-01-17T07:38:37.662Z,19287.50
2023-01-17T07:41:06.208Z,19259.03
2023-01-17T07:43:35.640Z,19240.75
2023-01-17T07:46:07.201Z,19210.28
2023-01-17T07:48:35.839Z,19240.75
2023-01-17T07:51:05.719Z,19216.38
2023-01-17T07:53:33.972Z,19267.16
2023-01-17T07:56:04.295Z,19212.31
2023-01-17T07:58:32.969Z,19236.69
2023-01-17T08:01:05.716Z,19212.31
2023-01-17T08:03:39.565Z,19248.88
2023-01-17T08:06:20.466Z,19230.59
2023-01-17T08:08:49.179Z,19240.75
2023-01-17T08:11:17.443Z,19271.25
2023-01-17T08:13:45.719Z,19232.63
2023-01-17T08:16:15.332Z,19244.81
2023-01-17T08:18:43.462Z,19248.88
2023-01-17T08:21:17.264Z,19220.44
2023-01-17T08:23:48.784Z,19234.66
2023-01-17T08:26:21.361Z,19236.69
2023-01-17T08:28:50.727Z,19240.75
2023-01-17T08:31:19.870Z,19189.97
2023-01-17T08:33:48.075Z,19232.63
2023-01-17T08:36:18.143Z,19248.88
2023-01-17T08:38:46.380Z,19242.78
2023-01-17T08:41:14.608Z,19244.81
2023-01-17T08:43:42.744Z,19259.03
2023-01-17T08:46:10.972Z,19254.97
2023-01-17T08:48:39.157Z,19242.78
2023-01-17T08:51:07.511Z,19263.09
2023-01-17T08:53:37.597Z,19248.88
2023-01-17T08:56:07.512Z,19226.53
2023-01-17T08:58:35.827Z,19240.75
2023-01-17T09:01:06.448Z,19210.28
2023-01-17T09:03:38.312Z,19220.44
2023-01-17T09:06:10.042Z,19232.63
2023-01-17T09:08:40.500Z,19224.50
2023-01-17T09:11:12.161Z,19246.84
2023-01-17T09:13:41.352Z,19224.50
2023-01-17T09:16:10.642Z,19254.97
2023-01-17T09:18:39.222Z,19267.16
2023-01-17T09:21:15.795Z,19277.34
2023-01-17T09:23:46.065Z,19277.34
2023-01-17T09:26:21.125Z,19313.91
2023-01-17T09:28:49.983Z,19311.88
2023-01-17T09:31:20.641Z,19336.25
2023-01-17T09:33:49.205Z,19389.09
2023-01-17T09:36:17.573Z,19395.19
2023-01-17T09:38:47.853Z,19378.94
2023-01-17T09:41:27.441Z,19401.28
2023-01-17T09:44:04.043Z,19380.97
2023-01-17T09:46:38.561Z,19387.06
2023-01-17T09:49:13.973Z,19415.50
2023-01-17T09:51:43.366Z,19366.75
2023-01-17T09:54:22.917Z,19399.25
2023-01-17T09:57:02.170Z,19405.34
2023-01-17T09:59:45.823Z,19376.91
2023-01-17T10:02:46.724Z,19370.81
2023-01-17T10:05:44.466Z,19391.13
2023-01-17T10:08:38.871Z,19397.22
2023-01-17T10:11:34.528Z,19387.06
2023-01-17T10:14:23.636Z,19378.94
2023-01-17T10:17:03.352Z,19348.47
2023-01-17T10:19:57.908Z,19391.13
2023-01-17T10:23:03.794Z,19364.72
2023-01-17T10:25:45.966Z,19370.81
2023-01-17T10:28:20.494Z,19366.75
2023-01-17T10:30:51.141Z,19330.16
2023-01-17T10:33:23.895Z,19376.91
2023-01-17T10:35:57.892Z,19370.81
2023-01-17T10:38:33.493Z,19330.16
2023-01-17T10:41:08.296Z,19352.53
2023-01-17T10:43:55.183Z,19350.50
2023-01-17T10:46:28.764Z,19358.63
2023-01-17T10:48:58.356Z,19372.84
2023-01-17T10:52:00.106Z,19344.41
2023-01-17T10:55:08.728Z,19378.94
2023-01-17T10:57:42.553Z,19368.78
2023-01-17T11:00:34.785Z,19380.97
2023-01-17T11:03:04.435Z,19395.19
2023-01-17T11:05:35.038Z,19374.88
2023-01-17T11:08:06.005Z,19340.31
2023-01-17T11:10:40.281Z,19387.06
2023-01-17T11:13:28.839Z,19336.25
2023-01-17T11:16:02.747Z,19309.84
2023-01-17T11:18:35.785Z,19342.34
2023-01-17T11:21:15.924Z,19311.88
2023-01-17T11:23:47.239Z,19301.72
2023-01-17T11:26:27.275Z,19291.56
2023-01-17T11:29:17.191Z,19354.56
2023-01-17T11:31:46.775Z,19378.94
2023-01-17T11:34:18.472Z,19421.63
2023-01-17T11:36:46.716Z,19427.72
2023-01-17T11:39:29.602Z,19419.59
2023-01-17T11:41:58.033Z,19450.06
2023-01-17T11:44:29.214Z,19435.84
2023-01-17T11:47:19.971Z,19439.91
2023-01-17T11:49:50.470Z,19439.91
2023-01-17T11:52:26.186Z,19454.13
2023-01-17T11:54:56.748Z,19425.69
2023-01-17T11:57:29.761Z,19395.19
2023-01-17T12:00:16.238Z,19435.84
2023-01-17T12:03:19.028Z,19435.84
2023-01-17T12:06:04.578Z,19490.72
2023-01-17T12:08:56.414Z,19425.69
2023-01-17T12:11:36.038Z,19407.38
2023-01-17T12:14:16.822Z,19378.94
2023-01-17T12:17:06.620Z,19368.78
2023-01-17T12:20:00.829Z,19362.69
2023-01-17T12:22:47.468Z,19336.25
2023-01-17T12:25:30.332Z,19334.22
2023-01-17T12:28:19.087Z,19374.88
2023-01-17T12:33:51.657Z,19399.25
2023-01-17T12:36:39.831Z,19393.16
2023-01-17T12:39:14.100Z,19401.28
2023-01-17T12:42:00.847Z,19385.03
2023-01-17T12:44:54.836Z,19409.41
2023-01-17T12:47:23.675Z,19417.56
2023-01-17T12:50:03.860Z,19407.38
2023-01-17T12:52:49.959Z,19397.22
2023-01-17T12:55:32.315Z,19389.09
2023-01-17T12:58:03.475Z,19421.63
2023-01-17T13:00:38.046Z,19342.34
2023-01-17T13:03:17.843Z,19354.56
2023-01-17T13:05:48.767Z,19338.28
2023-01-17T13:08:28.040Z,19315.94
2023-01-17T13:11:03.344Z,19338.28
2023-01-17T13:13:34.504Z,19356.59
2023-01-17T13:16:12.541Z,19368.78
2023-01-17T13:18:47.240Z,19322.03
2023-01-17T13:21:30.798Z,19309.84
2023-01-17T13:24:23.815Z,19352.53
2023-01-17T13:27:36.366Z,19338.28
2023-01-17T13:30:29.666Z,19338.28
2023-01-17T13:33:34.370Z,19368.78
2023-01-17T13:36:29.812Z,19336.25
2023-01-17T13:39:32.046Z,19380.97
2023-01-17T13:42:17.703Z,19401.28
2023-01-17T13:44:47.481Z,19368.78
2023-01-17T13:47:41.691Z,19380.97
2023-01-17T13:50:52.936Z,19366.75
2023-01-17T13:53:58.317Z,19378.94
2023-01-17T13:56:37.076Z,19362.69
2023-01-17T13:59:30.548Z,19370.81
2023-01-17T14:01:58.875Z,19383.00
2023-01-17T14:05:10.683Z,19368.78
2023-01-17T14:07:48.182Z,19401.28
2023-01-17T14:10:37.353Z,19376.91
2023-01-17T14:13:29.480Z,19405.34
2023-01-17T14:15:58.307Z,19364.72
2023-01-17T14:18:39.726Z,19393.16
2023-01-17T14:21:13.834Z,19403.31
2023-01-17T14:24:03.755Z,19391.13
2023-01-17T14:26:48.114Z,19360.66
2023-01-17T14:29:53.260Z,19385.03
2023-01-17T14:32:25.258Z,19391.13
2023-01-17T14:34:55.090Z,19356.59
2023-01-17T14:37:44.068Z,19334.22
2023-01-17T14:40:21.435Z,19360.66
2023-01-17T14:43:02.099Z,19332.19
2023-01-17T14:45:34.040Z,19399.25
2023-01-17T14:48:07.076Z,19362.69
2023-01-17T14:50:39.946Z,19366.75
2023-01-17T14:53:18.576Z,19383.00
2023-01-17T14:55:56.634Z,19366.75
2023-01-17T14:58:28.323Z,19403.31
2023-01-17T15:01:02.722Z,19378.94
2023-01-17T15:03:36.262Z,19364.72
2023-01-17T15:06:13.539Z,19342.34
2023-01-17T15:08:41.781Z,19362.69
2023-01-17T15:11:19.287Z,19338.28
2023-01-17T15:13:51.572Z,19334.22
2023-01-17T15:16:24.959Z,19358.63
2023-01-17T15:18:55.017Z,19301.72
2023-01-17T15:21:26.931Z,19336.25
2023-01-17T15:23:59.724Z,19309.84
2023-01-17T15:26:34.189Z,19340.31
2023-01-17T15:29:09.067Z,19338.28
2023-01-17T15:31:45.365Z,19334.22
2023-01-17T15:34:26.192Z,19311.88
2023-01-17T15:36:57.881Z,19289.53
2023-01-17T15:39:30.221Z,19301.72
2023-01-17T15:42:01.770Z,19322.03
2023-01-17T15:44:48.633Z,19320.00
2023-01-17T15:47:31.176Z,19313.91
2023-01-17T15:50:00.807Z,19317.97
2023-01-17T15:52:30.124Z,19305.78
2023-01-17T15:55:13.477Z,19317.97
2023-01-17T15:57:47.435Z,19305.78
2023-01-17T16:00:26.281Z,19301.72
2023-01-17T16:02:57.675Z,19263.09
2023-01-17T16:05:43.440Z,19279.38
2023-01-17T16:08:32.096Z,19301.72
2023-01-17T16:11:02.979Z,19281.41
2023-01-17T16:13:33.724Z,19305.78
2023-01-17T16:16:23.246Z,19265.13
2023-01-17T16:19:02.191Z,19287.50
2023-01-17T16:21:32.697Z,19277.34
2023-01-17T16:24:02.857Z,19269.22
2023-01-17T16:26:31.115Z,19287.50
2023-01-17T16:28:59.250Z,19299.69
2023-01-17T16:31:27.381Z,19305.78
2023-01-17T16:33:56.896Z,19311.88
2023-01-17T16:36:24.981Z,19317.97
2023-01-17T16:38:54.439Z,19279.38
2023-01-17T16:41:22.752Z,19320.00
2023-01-17T16:44:02.326Z,19285.47
2023-01-17T16:46:31.050Z,19269.22
2023-01-17T16:49:02.169Z,19291.56
2023-01-17T16:51:30.435Z,19254.97
2023-01-17T16:53:59.472Z,19257.00
2023-01-17T16:56:27.742Z,19236.69
2023-01-17T16:58:56.551Z,19287.50
2023-01-17T17:01:25.249Z,19242.78
2023-01-17T17:03:53.587Z,19277.34
2023-01-17T17:06:23.077Z,19259.03
2023-01-17T17:08:51.191Z,19248.88
2023-01-17T17:11:23.013Z,19261.06
2023-01-17T17:13:52.661Z,19220.44
2023-01-17T17:16:24.195Z,19198.09
2023-01-17T17:18:59.119Z,19187.91
2023-01-17T17:21:30.368Z,19202.16
2023-01-17T17:24:01.079Z,19181.81
2023-01-17T17:26:34.029Z,19167.59
2023-01-17T17:29:03.441Z,19169.63
2023-01-17T17:31:31.754Z,19175.72
2023-01-17T17:34:01.142Z,19159.47
2023-01-17T17:36:31.537Z,19157.44
2023-01-17T17:39:01.722Z,19155.41
2023-01-17T17:41:32.696Z,19163.53
2023-01-17T17:44:02.917Z,19143.22
2023-01-17T17:46:33.770Z,19141.19
2023-01-17T17:49:02.619Z,19110.72
2023-01-17T17:51:34.841Z,19129.00
2023-01-17T17:54:08.660Z,19100.53
2023-01-17T17:56:38.890Z,19124.94
2023-01-17T17:59:10.088Z,19104.59
2023-01-17T18:01:38.806Z,19114.78
2023-01-17T18:04:08.457Z,19102.56
2023-01-17T18:06:38.600Z,19129.00
2023-01-17T18:09:07.753Z,19120.88
2023-01-17T18:11:39.111Z,19102.56
2023-01-17T18:14:09.994Z,19100.53
2023-01-17T18:16:42.182Z,19106.66
2023-01-17T18:19:16.248Z,19078.19
2023-01-17T18:21:46.324Z,19068.03
2023-01-17T18:24:16.946Z,19090.38
2023-01-17T18:26:48.242Z,19112.75
2023-01-17T18:29:19.527Z,19057.88
2023-01-17T18:31:49.953Z,19092.41
2023-01-17T18:34:21.232Z,19041.63
2023-01-17T18:36:51.755Z,19068.03
2023-01-17T18:39:22.750Z,19041.63
2023-01-17T18:41:51.554Z,19053.81
2023-01-17T18:44:21.995Z,19076.16
2023-01-17T18:46:50.749Z,19088.34
2023-01-17T18:49:20.455Z,19092.41
2023-01-17T18:51:51.738Z,19047.72
2023-01-17T18:54:21.874Z,19049.75
2023-01-17T18:56:51.055Z,19057.88
2023-01-17T18:59:19.657Z,19049.75
2023-01-17T19:01:48.161Z,19059.91
2023-01-17T19:04:18.144Z,19063.97
2023-01-17T19:06:48.701Z,19074.13
2023-01-17T19:09:18.657Z,19082.25
2023-01-17T19:11:47.461Z,19070.06
2023-01-17T19:14:15.843Z,19070.06
2023-01-17T19:16:44.935Z,19078.19
2023-01-17T19:19:16.455Z,19057.88
2023-01-17T19:21:44.893Z,19011.13
2023-01-17T19:24:14.235Z,19039.59
2023-01-17T19:26:44.443Z,19049.75
2023-01-17T19:29:13.131Z,19041.63
2023-01-17T19:31:43.662Z,19045.69
2023-01-17T19:34:13.897Z,19076.16
2023-01-17T19:36:43.187Z,19041.63
2023-01-17T19:39:11.643Z,19033.50
2023-01-17T19:41:46.070Z,19076.16
2023-01-17T19:44:15.473Z,19066.00
2023-01-17T19:46:43.986Z,19086.31
2023-01-17T19:49:12.183Z,19082.25
2023-01-17T19:51:40.489Z,19055.84
2023-01-17T19:54:08.983Z,19033.50
2023-01-17T19:56:37.226Z,19070.06
2023-01-17T19:59:07.097Z,19059.91
2023-01-17T20:01:36.095Z,19053.81
2023-01-17T20:04:05.769Z,19063.97
2023-01-17T20:06:36.789Z,19051.78
2023-01-17T20:09:06.202Z,19066.00
2023-01-17T20:11:34.733Z,19029.44
2023-01-17T20:14:03.069Z,19051.78
2023-01-17T20:16:36.080Z,19053.81
2023-01-17T20:19:04.254Z,19033.50
2023-01-17T20:21:34.295Z,19059.91
2023-01-17T20:24:04.229Z,18982.69
2023-01-17T20:26:36.100Z,19021.31
2023-01-17T20:29:10.223Z,19027.41
2023-01-17T20:31:41.583Z,19013.16
2023-01-17T20:34:12.773Z,19055.84
2023-01-17T20:36:42.642Z,18990.81
2023-01-17T20:39:13.466Z,19053.81
2023-01-17T20:41:44.775Z,19033.50
2023-01-17T20:44:15.537Z,19037.56
2023-01-17T20:46:45.511Z,19021.31
2023-01-17T20:49:16.278Z,19051.78
2023-01-17T20:51:45.015Z,19005.03
2023-01-17T20:54:15.969Z,19049.75
2023-01-17T20:56:47.132Z,19051.78
2023-01-17T20:59:18.677Z,19053.81
2023-01-17T21:01:48.857Z,19049.75
2023-01-17T21:04:22.925Z,19070.06
2023-01-17T21:06:52.801Z,19023.34
2023-01-17T21:09:22.012Z,19031.47
2023-01-17T21:11:51.268Z,19072.09
2023-01-17T21:14:21.614Z,19005.03
2023-01-17T21:16:51.247Z,19027.41
2023-01-17T21:19:20.431Z,19035.53
2023-01-17T21:21:50.004Z,19017.25
2023-01-17T21:24:19.113Z,19049.75
2023-01-17T21:26:49.566Z,19066.00
2023-01-17T21:29:17.677Z,19039.59
2023-01-17T21:31:45.787Z,19037.56
2023-01-17T21:34:15.293Z,19013.16
2023-01-17T21:36:43.983Z,19013.16
2023-01-17T21:39:15.891Z,19047.72
2023-01-17T21:41:46.623Z,19031.47
2023-01-17T21:44:19.152Z,19039.59
2023-01-17T21:46:48.303Z,19009.09
2023-01-17T21:49:17.907Z,19051.78
2023-01-17T21:52:03.492Z,19009.09
2023-01-17T21:54:49.897Z,18998.94
2023-01-17T21:57:39.318Z,19021.31
2023-01-17T22:00:14.252Z,19033.50
2023-01-17T22:02:43.060Z,19033.50
2023-01-17T22:05:13.774Z,19021.31
2023-01-17T22:08:01.972Z,18998.94
2023-01-17T22:10:30.070Z,19055.84
2023-01-17T22:12:58.240Z,19033.50
2023-01-17T22:15:26.474Z,19053.81
2023-01-17T22:17:54.988Z,19037.56
2023-01-17T22:20:24.716Z,19045.69
2023-01-17T22:22:52.811Z,19057.88
2023-01-17T22:25:21.028Z,19088.34
2023-01-17T22:27:49.175Z,19053.81
2023-01-17T22:30:19.389Z,19027.41
2023-01-17T22:32:47.499Z,19039.59
2023-01-17T22:35:15.863Z,19041.63
2023-01-17T22:37:45.349Z,19027.41
2023-01-17T22:40:14.322Z,19015.19
2023-01-17T22:42:42.796Z,19019.28
2023-01-17T22:45:12.148Z,19007.06
2023-01-17T22:47:40.460Z,19029.44
2023-01-17T22:50:10.545Z,19043.66
2023-01-17T22:52:38.754Z,19049.75
2023-01-17T22:55:09.326Z,19011.13
2023-01-17T22:57:37.436Z,19041.63
2023-01-17T23:00:14.442Z,19021.31
2023-01-17T23:02:43.063Z,19041.63
2023-01-17T23:05:11.687Z,19035.53
2023-01-17T23:07:46.416Z,19078.19
2023-01-17T23:10:37.943Z,19094.44
2023-01-17T23:13:10.371Z,19055.84
2023-01-17T23:15:57.078Z,19070.06
2023-01-17T23:18:42.789Z,19066.00
2023-01-17T23:21:11.230Z,19055.84
2023-01-17T23:23:39.337Z,19053.81
2023-01-17T23:26:08.802Z,19074.13
2023-01-17T23:28:36.008Z,19076.16
2023-01-17T23:31:06.155Z,19080.22
2023-01-17T23:33:35.551Z,19041.63
2023-01-17T23:36:09.125Z,19057.88
2023-01-17T23:38:43.600Z,19045.69
2023-01-17T23:41:31.525Z,19029.44
2023-01-17T23:44:01.392Z,19053.81
2023-01-17T23:46:30.823Z,19057.88
2023-01-17T23:49:00.139Z,19049.75
2023-01-17T23:51:30.581Z,19066.00
2023-01-17T23:54:05.222Z,18992.84
2023-01-17T23:56:34.748Z,19059.91
2023-01-17T23:59:04.345Z,19033.50
